Wetterdaten: Woche 02.11.09 - 08.11.09 (KW45)
Datum Zeit Temperatur Luftfeuchte Luftdruck Niederschlag Windrichtung Wind
02.11.2009 00:00 6,2 C 97 % 1007,2 hPa 0,0 l/m N-NW 2,3 km/h (1 Bft)
02.11.2009 01:00 6,5 C 97 % 1006,3 hPa 0,0 l/m N 0,4 km/h (0 Bft)
02.11.2009 02:00 6,7 C 97 % 1006,1 hPa 0,6 l/m N 0,5 km/h (0 Bft)
02.11.2009 03:00 6,7 C 97 % 1006,1 hPa 0,6 l/m N 2,9 km/h (1 Bft)
02.11.2009 04:00 7,6 C 98 % 1006,3 hPa 2,0 l/m W-SW 16,5 km/h (3 Bft)
02.11.2009 05:00 11,0 C 98 % 1005,8 hPa 0,4 l/m W-SW 34,9 km/h (5 Bft)
02.11.2009 06:00 11,0 C 96 % 1005,4 hPa 0,4 l/m SW 24,3 km/h (4 Bft)
02.11.2009 07:00 10,3 C 96 % 1004,8 hPa 0,0 l/m SW 16,2 km/h (3 Bft)
02.11.2009 08:00 9,6 C 97 % 1004,4 hPa 0,8 l/m SW 11,7 km/h (2 Bft)
02.11.2009 09:00 9,6 C 97 % 1003,8 hPa 0,4 l/m SW 9,8 km/h (2 Bft)
02.11.2009 10:00 9,6 C 98 % 1003,7 hPa 2,2 l/m SW 14,4 km/h (3 Bft)
02.11.2009 11:00 9,9 C 98 % 1002,7 hPa 1,8 l/m S-SW 15,0 km/h (3 Bft)
02.11.2009 12:00 10,0 C 97 % 1002,2 hPa 3,8 l/m W-SW 17,7 km/h (3 Bft)
02.11.2009 13:00 8,6 C 91 % 1002,7 hPa 3,4 l/m W-NW 20,8 km/h (4 Bft)
02.11.2009 14:00 7,9 C 93 % 1002,4 hPa 1,2 l/m W-NW 3,9 km/h (1 Bft)
02.11.2009 15:00 7,8 C 96 % 1002,4 hPa 0,6 l/m SW 12,5 km/h (3 Bft)
02.11.2009 16:00 7,4 C 94 % 1002,9 hPa 0,8 l/m SW 22,1 km/h (4 Bft)
02.11.2009 17:00 6,5 C 94 % 1003,9 hPa 1,4 l/m W-NW 19,7 km/h (3 Bft)
02.11.2009 18:00 5,8 C 93 % 1004,5 hPa 2,0 l/m W 17,2 km/h (3 Bft)
02.11.2009 19:00 5,5 C 95 % 1004,7 hPa 0,8 l/m W 16,0 km/h (3 Bft)
02.11.2009 20:00 5,2 C 95 % 1004,8 hPa 0,0 l/m W-SW 21,0 km/h (4 Bft)
02.11.2009 21:00 4,9 C 95 % 1004,8 hPa 0,0 l/m W-SW 19,4 km/h (3 Bft)
02.11.2009 22:00 4,7 C 95 % 1004,5 hPa 0,0 l/m SW 14,1 km/h (3 Bft)
02.11.2009 23:00 4,7 C 95 % 1003,8 hPa 0,0 l/m W-SW 12,9 km/h (3 Bft)
03.11.2009 00:00 4,4 C 94 % 1002,9 hPa 0,0 l/m SW 6,9 km/h (2 Bft)
03.11.2009 01:00 3,9 C 95 % 1002,3 hPa 0,0 l/m SW 8,0 km/h (2 Bft)
03.11.2009 02:00 4,0 C 96 % 1001,8 hPa 0,0 l/m SW 10,1 km/h (2 Bft)
03.11.2009 03:00 4,2 C 96 % 1001,7 hPa 0,0 l/m W-SW 9,4 km/h (2 Bft)
03.11.2009 04:00 4,2 C 95 % 1001,4 hPa 0,0 l/m SW 4,7 km/h (1 Bft)
03.11.2009 05:00 4,1 C 95 % 1001,5 hPa 0,0 l/m W-SW 9,3 km/h (2 Bft)
03.11.2009 06:00 3,8 C 95 % 1001,3 hPa 0,0 l/m W 6,8 km/h (2 Bft)
03.11.2009 07:00 3,8 C 96 % 1001,5 hPa 0,0 l/m W-SW 8,3 km/h (2 Bft)
03.11.2009 08:00 4,0 C 96 % 1002,1 hPa 0,0 l/m W-SW 3,5 km/h (1 Bft)
03.11.2009 09:00 4,8 C 94 % 1002,4 hPa 0,0 l/m W 9,5 km/h (2 Bft)
03.11.2009 10:00 6,1 C 88 % 1002,3 hPa 0,0 l/m W-SW 13,8 km/h (3 Bft)
03.11.2009 11:00 7,3 C 81 % 1001,9 hPa 0,0 l/m W 14,8 km/h (3 Bft)
03.11.2009 12:00 7,6 C 78 % 1001,5 hPa 0,0 l/m W-SW 17,3 km/h (3 Bft)
03.11.2009 13:00 8,5 C 74 % 1000,8 hPa 0,0 l/m W 16,4 km/h (3 Bft)
03.11.2009 14:00 8,8 C 69 % 1000,3 hPa 0,0 l/m W 21,3 km/h (4 Bft)
03.11.2009 15:00 8,1 C 72 % 1000,0 hPa 0,0 l/m W-SW 14,2 km/h (3 Bft)
03.11.2009 16:00 7,5 C 77 % 999,5 hPa 0,0 l/m W-SW 7,9 km/h (2 Bft)
03.11.2009 17:00 6,6 C 84 % 999,2 hPa 0,0 l/m SW 6,0 km/h (2 Bft)
03.11.2009 18:00 6,2 C 87 % 998,8 hPa 0,0 l/m SW 4,7 km/h (1 Bft)
03.11.2009 19:00 6,5 C 86 % 998,2 hPa 0,0 l/m SW 16,9 km/h (3 Bft)
03.11.2009 20:00 6,5 C 90 % 997,5 hPa 0,6 l/m SW 24,1 km/h (4 Bft)
03.11.2009 21:00 6,0 C 94 % 996,9 hPa 0,2 l/m SW 24,0 km/h (4 Bft)
03.11.2009 22:00 5,9 C 96 % 996,3 hPa 0,0 l/m W-SW 22,4 km/h (4 Bft)
03.11.2009 23:00 6,3 C 97 % 995,6 hPa 0,2 l/m SW 21,6 km/h (4 Bft)
04.11.2009 00:00 6,3 C 97 % 994,7 hPa 0,0 l/m SW 17,4 km/h (3 Bft)
04.11.2009 01:00 6,4 C 96 % 993,7 hPa 0,2 l/m SW 18,4 km/h (3 Bft)
04.11.2009 02:00 6,4 C 96 % 992,1 hPa 0,6 l/m SW 18,8 km/h (3 Bft)
04.11.2009 03:00 6,4 C 97 % 990,3 hPa 0,0 l/m SW 18,2 km/h (3 Bft)
04.11.2009 04:00 6,7 C 96 % 989,3 hPa 0,2 l/m SW 14,1 km/h (3 Bft)
04.11.2009 05:00 6,6 C 96 % 988,9 hPa 0,8 l/m SW 11,3 km/h (2 Bft)
04.11.2009 06:00 7,0 C 97 % 988,9 hPa 0,0 l/m SW 19,0 km/h (3 Bft)
04.11.2009 07:00 8,4 C 94 % 990,0 hPa 0,0 l/m W-SW 23,7 km/h (4 Bft)
04.11.2009 08:00 8,6 C 89 % 991,8 hPa 0,0 l/m W-SW 20,8 km/h (4 Bft)
04.11.2009 09:00 8,7 C 81 % 992,5 hPa 0,0 l/m W-SW 26,0 km/h (4 Bft)
04.11.2009 10:00 8,8 C 79 % 992,5 hPa 0,0 l/m W 28,2 km/h (4 Bft)
04.11.2009 11:00 8,8 C 77 % 993,0 hPa 0,0 l/m W 34,3 km/h (5 Bft)
04.11.2009 12:00 8,5 C 77 % 993,6 hPa 0,2 l/m W-SW 33,3 km/h (5 Bft)
04.11.2009 13:00 8,2 C 81 % 993,9 hPa 0,2 l/m W-SW 31,7 km/h (5 Bft)
04.11.2009 14:00 8,8 C 69 % 994,1 hPa 0,0 l/m W 34,1 km/h (5 Bft)
04.11.2009 15:00 8,6 C 70 % 994,5 hPa 0,0 l/m W 24,9 km/h (4 Bft)
04.11.2009 16:00 7,9 C 70 % 994,9 hPa 0,0 l/m W-SW 21,3 km/h (4 Bft)
04.11.2009 17:00 7,0 C 72 % 995,3 hPa 0,0 l/m W-SW 11,6 km/h (2 Bft)
04.11.2009 18:00 6,2 C 73 % 995,6 hPa 0,0 l/m W 14,9 km/h (3 Bft)
04.11.2009 19:00 5,4 C 78 % 996,0 hPa 0,0 l/m S-SW 6,1 km/h (2 Bft)
04.11.2009 20:00 4,8 C 83 % 996,4 hPa 0,0 l/m W-SW 12,5 km/h (3 Bft)
04.11.2009 21:00 4,7 C 83 % 996,7 hPa 0,0 l/m SW 13,0 km/h (3 Bft)
04.11.2009 22:00 4,7 C 84 % 996,7 hPa 0,0 l/m SW 10,7 km/h (2 Bft)
04.11.2009 23:00 5,1 C 84 % 997,1 hPa 0,0 l/m W-SW 20,1 km/h (4 Bft)
05.11.2009 00:00 5,2 C 86 % 997,4 hPa 0,0 l/m W-SW 17,6 km/h (3 Bft)
05.11.2009 01:00 4,5 C 91 % 997,5 hPa 0,0 l/m SW 11,3 km/h (2 Bft)
05.11.2009 02:00 4,6 C 92 % 997,6 hPa 0,0 l/m W-SW 17,6 km/h (3 Bft)
05.11.2009 03:00 4,9 C 91 % 997,9 hPa 0,0 l/m W-SW 20,1 km/h (4 Bft)
05.11.2009 04:00 4,7 C 92 % 998,3 hPa 0,0 l/m W-SW 17,6 km/h (3 Bft)
05.11.2009 05:00 4,4 C 92 % 998,6 hPa 0,0 l/m SW 11,8 km/h (2 Bft)
05.11.2009 06:00 3,9 C 93 % 998,9 hPa 0,0 l/m SW 10,2 km/h (2 Bft)
05.11.2009 07:00 3,6 C 94 % 999,4 hPa 0,0 l/m SW 8,4 km/h (2 Bft)
05.11.2009 08:00 3,9 C 94 % 1000,1 hPa 0,0 l/m SW 11,8 km/h (2 Bft)
05.11.2009 09:00 5,7 C 90 % 1000,6 hPa 0,0 l/m SW 20,5 km/h (4 Bft)
05.11.2009 10:00 7,5 C 79 % 1000,7 hPa 0,0 l/m W-SW 24,4 km/h (4 Bft)
05.11.2009 11:00 8,3 C 73 % 1001,1 hPa 0,0 l/m W-SW 28,6 km/h (4 Bft)
05.11.2009 12:00 9,3 C 67 % 1000,9 hPa 0,0 l/m W-SW 27,1 km/h (4 Bft)
05.11.2009 13:00 9,8 C 64 % 1000,7 hPa 0,0 l/m W-SW 22,0 km/h (4 Bft)
05.11.2009 14:00 9,4 C 63 % 1000,8 hPa 0,0 l/m W-SW 24,7 km/h (4 Bft)
05.11.2009 15:00 9,5 C 63 % 1000,9 hPa 0,0 l/m W-SW 19,4 km/h (3 Bft)
05.11.2009 16:00 8,2 C 69 % 1001,2 hPa 0,0 l/m SW 7,0 km/h (2 Bft)
05.11.2009 17:00 5,4 C 82 % 1001,8 hPa 0,0 l/m W-SW 2,4 km/h (1 Bft)
05.11.2009 18:00 4,1 C 88 % 1002,7 hPa 0,0 l/m N 1,2 km/h (1 Bft)
05.11.2009 19:00 3,5 C 90 % 1003,1 hPa 0,0 l/m N 0,1 km/h (0 Bft)
05.11.2009 20:00 2,3 C 93 % 1003,6 hPa 0,0 l/m N 0,1 km/h (0 Bft)
05.11.2009 21:00 1,5 C 95 % 1004,2 hPa 0,0 l/m N 0,3 km/h (0 Bft)
05.11.2009 22:00 1,1 C 95 % 1004,6 hPa 0,0 l/m N 0,0 km/h (0 Bft)
05.11.2009 23:00 0,7 C 96 % 1005,0 hPa 0,0 l/m N 0,1 km/h (0 Bft)
06.11.2009 00:00 1,0 C 96 % 1005,6 hPa 0,0 l/m N 0,1 km/h (0 Bft)
06.11.2009 01:00 1,1 C 96 % 1005,9 hPa 0,0 l/m N 0,1 km/h (0 Bft)
06.11.2009 02:00 0,6 C 95 % 1006,2 hPa 0,0 l/m N 0,3 km/h (0 Bft)
06.11.2009 03:00 0,2 C 95 % 1006,5 hPa 0,0 l/m N 0,3 km/h (0 Bft)
06.11.2009 04:00 0,6 C 97 % 1006,9 hPa 0,0 l/m N 0,3 km/h (0 Bft)
06.11.2009 05:00 0,6 C 96 % 1007,4 hPa 0,0 l/m N 0,4 km/h (0 Bft)
06.11.2009 06:00 0,2 C 96 % 1007,9 hPa 0,0 l/m N 0,1 km/h (0 Bft)
06.11.2009 07:00 -0,2 C 96 % 1008,4 hPa 0,0 l/m N 0,8 km/h (0 Bft)
06.11.2009 08:00 -0,1 C 96 % 1009,0 hPa 0,0 l/m N 0,8 km/h (0 Bft)
06.11.2009 09:00 2,0 C 98 % 1009,5 hPa 0,0 l/m S-SW 2,9 km/h (1 Bft)
06.11.2009 10:00 6,4 C 87 % 1009,6 hPa 0,0 l/m SW 7,0 km/h (2 Bft)
06.11.2009 11:00 8,4 C 76 % 1009,7 hPa 0,0 l/m SW 13,7 km/h (3 Bft)
06.11.2009 12:00 8,9 C 73 % 1009,4 hPa 0,0 l/m W 11,4 km/h (2 Bft)
06.11.2009 13:00 9,2 C 70 % 1009,2 hPa 0,0 l/m W-SW 8,8 km/h (2 Bft)
06.11.2009 14:00 8,6 C 72 % 1009,1 hPa 0,0 l/m W-NW 4,5 km/h (1 Bft)
06.11.2009 15:00 8,8 C 72 % 1009,3 hPa 0,0 l/m W-NW 2,8 km/h (1 Bft)
06.11.2009 16:00 8,5 C 74 % 1009,6 hPa 0,0 l/m W-SW 3,7 km/h (1 Bft)
06.11.2009 17:00 7,2 C 81 % 1010,0 hPa 0,0 l/m N 0,0 km/h (0 Bft)
06.11.2009 18:00 5,7 C 86 % 1010,4 hPa 0,0 l/m N 0,0 km/h (0 Bft)
06.11.2009 19:00 5,2 C 88 % 1010,5 hPa 0,0 l/m S 0,5 km/h (0 Bft)
06.11.2009 20:00 4,4 C 89 % 1010,1 hPa 0,0 l/m N 0,0 km/h (0 Bft)
06.11.2009 21:00 3,1 C 90 % 1009,8 hPa 0,0 l/m N 0,0 km/h (0 Bft)
06.11.2009 22:00 1,9 C 91 % 1009,4 hPa 0,0 l/m N 0,0 km/h (0 Bft)
06.11.2009 23:00 1,0 C 92 % 1009,0 hPa 0,0 l/m N 0,0 km/h (0 Bft)
07.11.2009 00:00 0,4 C 93 % 1008,7 hPa 0,0 l/m N 0,0 km/h (0 Bft)
07.11.2009 01:00 -0,1 C 95 % 1008,2 hPa 0,0 l/m N 0,0 km/h (0 Bft)
07.11.2009 02:00 -0,5 C 94 % 1007,4 hPa 0,0 l/m N 0,0 km/h (0 Bft)
07.11.2009 03:00 -0,6 C 95 % 1006,5 hPa 0,0 l/m N 0,3 km/h (0 Bft)
07.11.2009 04:00 -0,6 C 96 % 1006,0 hPa 0,0 l/m N 0,0 km/h (0 Bft)
07.11.2009 05:00 -0,8 C 96 % 1004,8 hPa 0,0 l/m N 0,1 km/h (0 Bft)
07.11.2009 06:00 -1,4 C 96 % 1004,2 hPa 0,0 l/m N 0,3 km/h (0 Bft)
07.11.2009 07:00 -1,7 C 96 % 1003,8 hPa 0,0 l/m N-NW 3,3 km/h (1 Bft)
07.11.2009 08:00 -1,1 C 97 % 1003,9 hPa 0,0 l/m N 0,4 km/h (0 Bft)
07.11.2009 09:00 -0,1 C 98 % 1003,6 hPa 0,0 l/m N-NW 1,3 km/h (1 Bft)
07.11.2009 10:00 1,7 C 99 % 1003,9 hPa 0,0 l/m S 4,5 km/h (1 Bft)
07.11.2009 11:00 3,5 C 99 % 1003,5 hPa 0,0 l/m S-SW 10,5 km/h (2 Bft)
07.11.2009 12:00 4,0 C 97 % 1002,8 hPa 0,2 l/m S-SW 9,8 km/h (2 Bft)
07.11.2009 13:00 5,6 C 93 % 1002,2 hPa 0,2 l/m SW 11,7 km/h (2 Bft)
07.11.2009 14:00 6,3 C 82 % 1001,9 hPa 0,0 l/m W-SW 17,6 km/h (3 Bft)
07.11.2009 15:00 6,3 C 82 % 1001,7 hPa 0,0 l/m S-SW 6,1 km/h (2 Bft)
07.11.2009 16:00 6,2 C 83 % 1001,7 hPa 0,0 l/m S-SW 3,5 km/h (1 Bft)
07.11.2009 17:00 5,5 C 84 % 1001,9 hPa 0,0 l/m N 0,0 km/h (0 Bft)
07.11.2009 18:00 3,8 C 87 % 1002,1 hPa 0,0 l/m N 0,9 km/h (0 Bft)
07.11.2009 19:00 2,7 C 92 % 1002,2 hPa 0,0 l/m N 0,7 km/h (0 Bft)
07.11.2009 20:00 2,3 C 93 % 1002,1 hPa 0,0 l/m N 0,3 km/h (0 Bft)
07.11.2009 21:00 2,2 C 94 % 1002,6 hPa 0,0 l/m N 0,5 km/h (0 Bft)
07.11.2009 22:00 2,2 C 95 % 1003,0 hPa 0,0 l/m N 0,1 km/h (0 Bft)
07.11.2009 23:00 2,4 C 96 % 1003,4 hPa 0,0 l/m SW 2,4 km/h (1 Bft)
08.11.2009 00:00 2,6 C 96 % 1003,9 hPa 0,4 l/m S-SW 2,7 km/h (1 Bft)
08.11.2009 01:00 3,0 C 97 % 1004,0 hPa 0,2 l/m S-SW 2,1 km/h (1 Bft)
08.11.2009 02:00 3,3 C 97 % 1004,1 hPa 0,2 l/m SW 3,5 km/h (1 Bft)
08.11.2009 03:00 3,4 C 97 % 1004,1 hPa 0,0 l/m W-SW 7,6 km/h (2 Bft)
08.11.2009 04:00 3,7 C 97 % 1003,9 hPa 0,0 l/m W 7,9 km/h (2 Bft)
08.11.2009 05:00 3,7 C 96 % 1003,8 hPa 0,0 l/m W 3,9 km/h (1 Bft)
08.11.2009 06:00 3,6 C 96 % 1003,8 hPa 0,0 l/m N 0,3 km/h (0 Bft)
08.11.2009 07:00 3,5 C 96 % 1003,7 hPa 0,0 l/m N 0,3 km/h (0 Bft)
08.11.2009 08:00 3,6 C 96 % 1003,7 hPa 0,0 l/m W 2,3 km/h (1 Bft)
08.11.2009 09:00 3,9 C 96 % 1003,6 hPa 0,0 l/m N-NO 6,1 km/h (2 Bft)
08.11.2009 10:00 4,6 C 94 % 1003,1 hPa 0,0 l/m NO 12,5 km/h (3 Bft)
08.11.2009 11:00 4,9 C 93 % 1002,8 hPa 0,0 l/m NO 11,6 km/h (2 Bft)
08.11.2009 12:00 4,7 C 95 % 1002,2 hPa 0,0 l/m O-NO 16,4 km/h (3 Bft)
08.11.2009 13:00 4,8 C 95 % 1002,0 hPa 0,0 l/m NO 13,7 km/h (3 Bft)
08.11.2009 14:00 4,8 C 94 % 1001,6 hPa 0,0 l/m NO 16,5 km/h (3 Bft)
08.11.2009 15:00 4,0 C 95 % 1001,6 hPa 0,0 l/m NO 20,9 km/h (4 Bft)
08.11.2009 16:00 3,4 C 95 % 1002,1 hPa 0,0 l/m NO 20,6 km/h (4 Bft)
08.11.2009 17:00 3,0 C 95 % 1002,6 hPa 0,0 l/m NO 16,8 km/h (3 Bft)
08.11.2009 18:00 2,8 C 97 % 1002,8 hPa 0,0 l/m O-NO 16,6 km/h (3 Bft)
08.11.2009 19:00 2,9 C 97 % 1002,7 hPa 0,0 l/m O-NO 14,1 km/h (3 Bft)
08.11.2009 20:00 3,0 C 96 % 1002,7 hPa 0,0 l/m NO 13,4 km/h (3 Bft)
08.11.2009 21:00 3,1 C 96 % 1002,9 hPa 0,0 l/m NO 12,9 km/h (3 Bft)
08.11.2009 22:00 3,3 C 95 % 1002,9 hPa 0,0 l/m N-NO 12,8 km/h (3 Bft)
08.11.2009 23:00 3,3 C 96 % 1002,9 hPa 1,0 l/m NO 10,5 km/h (2 Bft)
Min-Datum _ 07.11.09 05.11.09 04.11.09 - - 02.11.09
_ Min-Zeit 07:10 14:10 05:20 - - 00:05
Minimum _ -1,8 C 60 % 988,7 hPa - - 0,0 km/h (0 Bft)
Max-Datum _ 02.11.09 02.11.09 06.11.09 02.11.09 - 04.11.09
_ Max-Zeit 05:30 04:55 18:40 12:55 - 12:15
Maximum _ 11,2 C 100 % 1010,6 hPa 3,8 l/m - 51,5 km/h
W-SW (7 Bft)
Durchschnitt _ 5,0 C 90 % 1002,1 hPa #28,6 l/m SW 10,8 km/h (2 Bft)